sensor_id;sensor_type;location;lat;lon;timestamp;pressure;altitude;pressure_sealevel;temperature;humidity
30343;BME280;17145;49.902;8.680;'2023-02-02 00:58:45';100560;;;5;55
30343;BME280;17145;49.902;8.680;'2023-02-02 01:01:13';100560;;;6;55
30343;BME280;17145;49.902;8.680;'2023-02-02 01:03:40';100560;;;5;55
30343;BME280;17145;49.902;8.680;'2023-02-02 01:06:07';100560;;;6;55
30343;BME280;17145;49.902;8.680;'2023-02-02 01:08:35';100550;;;6;55
30343;BME280;17145;49.902;8.680;'2023-02-02 01:11:03';100560;;;6;55
30343;BME280;17145;49.902;8.680;'2023-02-02 01:13:30';100550;;;6;55
30343;BME280;17145;49.902;8.680;'2023-02-02 01:15:57';100550;;;6;54
30343;BME280;17145;49.902;8.680;'2023-02-02 01:18:25';100560;;;6;55
30343;BME280;17145;49.902;8.680;'2023-02-02 01:20:52';100560;;;5;55
30343;BME280;17145;49.902;8.680;'2023-02-02 01:23:20';100570;;;5;56
30343;BME280;17145;49.902;8.680;'2023-02-02 01:25:49';100560;;;5;56
30343;BME280;17145;49.902;8.680;'2023-02-02 01:28:17';100560;;;5;56
30343;BME280;17145;49.902;8.680;'2023-02-02 01:30:44';100570;;;5;56
30343;BME280;17145;49.902;8.680;'2023-02-02 01:33:11';100560;;;5;57
30343;BME280;17145;49.902;8.680;'2023-02-02 01:35:40';100570;;;4;57
30343;BME280;17145;49.902;8.680;'2023-02-02 01:38:08';100560;;;5;57
30343;BME280;17145;49.902;8.680;'2023-02-02 01:40:35';100560;;;5;56
30343;BME280;17145;49.902;8.680;'2023-02-02 01:43:03';100560;;;5;56
30343;BME280;17145;49.902;8.680;'2023-02-02 01:45:30';100550;;;5;57
30343;BME280;17145;49.902;8.680;'2023-02-02 01:47:58';100550;;;5;57
30343;BME280;17145;49.902;8.680;'2023-02-02 01:50:25';100550;;;5;57
30343;BME280;17145;49.902;8.680;'2023-02-02 01:52:53';100550;;;5;57
30343;BME280;17145;49.902;8.680;'2023-02-02 01:55:20';100550;;;5;57
30343;BME280;17145;49.902;8.680;'2023-02-02 01:57:48';100550;;;5;56
30343;BME280;17145;49.902;8.680;'2023-02-02 02:00:17';100550;;;5;56
30343;BME280;17145;49.902;8.680;'2023-02-02 02:02:45';100560;;;5;56
30343;BME280;17145;49.902;8.680;'2023-02-02 02:05:13';100560;;;5;56
30343;BME280;17145;49.902;8.680;'2023-02-02 02:07:40';100570;;;4;58
30343;BME280;17145;49.902;8.680;'2023-02-02 02:10:11';100570;;;5;58
30343;BME280;17145;49.902;8.680;'2023-02-02 02:12:39';100570;;;4;60
30343;BME280;17145;49.902;8.680;'2023-02-02 02:15:07';100570;;;5;59
30343;BME280;17145;49.902;8.680;'2023-02-02 02:17:35';100570;;;5;59
30343;BME280;17145;49.902;8.680;'2023-02-02 02:20:04';100570;;;5;59
30343;BME280;17145;49.902;8.680;'2023-02-02 02:22:31';100560;;;5;58
30343;BME280;17145;49.902;8.680;'2023-02-02 02:24:59';100570;;;5;58
30343;BME280;17145;49.902;8.680;'2023-02-02 02:27:26';100570;;;4;60
30343;BME280;17145;49.902;8.680;'2023-02-02 02:29:53';100570;;;4;59
30343;BME280;17145;49.902;8.680;'2023-02-02 02:32:21';100570;;;5;59
30343;BME280;17145;49.902;8.680;'2023-02-02 02:34:48';100570;;;5;59
30343;BME280;17145;49.902;8.680;'2023-02-02 02:37:16';100580;;;4;60
30343;BME280;17145;49.902;8.680;'2023-02-02 02:39:43';100580;;;5;59
30343;BME280;17145;49.902;8.680;'2023-02-02 02:44:59';100590;;;5;58
30343;BME280;17145;49.902;8.680;'2023-02-02 02:47:32';100590;;;5;60
30343;BME280;17145;49.902;8.680;'2023-02-02 02:50:00';100590;;;5;60
30343;BME280;17145;49.902;8.680;'2023-02-02 02:52:30';100580;;;5;60
30343;BME280;17145;49.902;8.680;'2023-02-02 02:55:02';100580;;;5;60
30343;BME280;17145;49.902;8.680;'2023-02-02 02:57:36';100600;;;5;61
30343;BME280;17145;49.902;8.680;'2023-02-02 03:00:08';100590;;;5;60
30343;BME280;17145;49.902;8.680;'2023-02-02 03:02:37';100590;;;5;60
30343;BME280;17145;49.902;8.680;'2023-02-02 03:05:06';100590;;;4;61
30343;BME280;17145;49.902;8.680;'2023-02-02 03:07:34';100580;;;5;60
30343;BME280;17145;49.902;8.680;'2023-02-02 03:10:02';100580;;;5;60
30343;BME280;17145;49.902;8.680;'2023-02-02 03:12:29';100580;;;5;61
30343;BME280;17145;49.902;8.680;'2023-02-02 03:14:56';100580;;;5;60
30343;BME280;17145;49.902;8.680;'2023-02-02 03:17:38';100580;;;5;61
30343;BME280;17145;49.902;8.680;'2023-02-02 03:23:06';100580;;;5;61
30343;BME280;17145;49.902;8.680;'2023-02-02 03:25:50';100580;;;5;60
30343;BME280;17145;49.902;8.680;'2023-02-02 03:28:36';100570;;;4;61
30343;BME280;17145;49.902;8.680;'2023-02-02 03:31:25';100580;;;5;61
30343;BME280;17145;49.902;8.680;'2023-02-02 03:33:59';100580;;;5;60
30343;BME280;17145;49.902;8.680;'2023-02-02 03:36:36';100580;;;4;61
30343;BME280;17145;49.902;8.680;'2023-02-02 03:39:11';100570;;;4;61
30343;BME280;17145;49.902;8.680;'2023-02-02 03:41:45';100580;;;5;60
30343;BME280;17145;49.902;8.680;'2023-02-02 03:44:17';100580;;;5;60
30343;BME280;17145;49.902;8.680;'2023-02-02 03:46:46';100580;;;5;60
30343;BME280;17145;49.902;8.680;'2023-02-02 03:49:13';100580;;;5;60
30343;BME280;17145;49.902;8.680;'2023-02-02 03:51:44';100580;;;5;60
30343;BME280;17145;49.902;8.680;'2023-02-02 03:54:15';100580;;;5;60
30343;BME280;17145;49.902;8.680;'2023-02-02 03:56:58';100580;;;5;61
30343;BME280;17145;49.902;8.680;'2023-02-02 03:59:36';100580;;;5;61
30343;BME280;17145;49.902;8.680;'2023-02-02 04:02:17';100570;;;4;61
30343;BME280;17145;49.902;8.680;'2023-02-02 04:04:54';100570;;;5;61
30343;BME280;17145;49.902;8.680;'2023-02-02 04:07:26';100580;;;5;61
30343;BME280;17145;49.902;8.680;'2023-02-02 04:09:57';100580;;;4;62
30343;BME280;17145;49.902;8.680;'2023-02-02 04:12:24';100570;;;5;61
30343;BME280;17145;49.902;8.680;'2023-02-02 04:14:52';100570;;;5;61
30343;BME280;17145;49.902;8.680;'2023-02-02 04:17:19';100570;;;5;61
30343;BME280;17145;49.902;8.680;'2023-02-02 04:19:47';100570;;;5;60
30343;BME280;17145;49.902;8.680;'2023-02-02 04:22:14';100570;;;5;60
30343;BME280;17145;49.902;8.680;'2023-02-02 04:24:42';100570;;;5;60
30343;BME280;17145;49.902;8.680;'2023-02-02 04:27:10';100570;;;5;60
30343;BME280;17145;49.902;8.680;'2023-02-02 04:29:37';100570;;;5;60
30343;BME280;17145;49.902;8.680;'2023-02-02 04:32:05';100570;;;4;61
30343;BME280;17145;49.902;8.680;'2023-02-02 04:34:32';100580;;;5;60
30343;BME280;17145;49.902;8.680;'2023-02-02 04:36:59';100580;;;4;61
30343;BME280;17145;49.902;8.680;'2023-02-02 04:39:27';100580;;;5;61
30343;BME280;17145;49.902;8.680;'2023-02-02 04:41:54';100570;;;5;60
30343;BME280;17145;49.902;8.680;'2023-02-02 04:44:21';100570;;;5;60
30343;BME280;17145;49.902;8.680;'2023-02-02 04:46:53';100570;;;5;60
30343;BME280;17145;49.902;8.680;'2023-02-02 04:49:20';100580;;;4;60
30343;BME280;17145;49.902;8.680;'2023-02-02 04:51:48';100580;;;5;60
30343;BME280;17145;49.902;8.680;'2023-02-02 04:54:15';100580;;;5;60
30343;BME280;17145;49.902;8.680;'2023-02-02 04:56:42';100570;;;5;60
30343;BME280;17145;49.902;8.680;'2023-02-02 04:59:10';100570;;;5;59
30343;BME280;17145;49.902;8.680;'2023-02-02 05:01:37';100570;;;5;59
30343;BME280;17145;49.902;8.680;'2023-02-02 05:04:05';100570;;;5;59
30343;BME280;17145;49.902;8.680;'2023-02-02 05:06:32';100570;;;5;58
30343;BME280;17145;49.902;8.680;'2023-02-02 05:08:59';100580;;;5;59
30343;BME280;17145;49.902;8.680;'2023-02-02 05:11:27';100580;;;5;59
30343;BME280;17145;49.902;8.680;'2023-02-02 05:13:54';100600;;;4;61
30343;BME280;17145;49.902;8.680;'2023-02-02 05:16:21';100590;;;4;61
30343;BME280;17145;49.902;8.680;'2023-02-02 05:18:48';100590;;;4;62
30343;BME280;17145;49.902;8.680;'2023-02-02 05:21:16';100600;;;5;61
30343;BME280;17145;49.902;8.680;'2023-02-02 05:23:43';100600;;;5;61
30343;BME280;17145;49.902;8.680;'2023-02-02 05:26:11';100590;;;4;61
30343;BME280;17145;49.902;8.680;'2023-02-02 05:28:38';100600;;;5;61
30343;BME280;17145;49.902;8.680;'2023-02-02 05:31:06';100600;;;5;61
30343;BME280;17145;49.902;8.680;'2023-02-02 05:33:34';100600;;;5;60
30343;BME280;17145;49.902;8.680;'2023-02-02 05:36:01';100600;;;5;60
30343;BME280;17145;49.902;8.680;'2023-02-02 05:38:29';100620;;;5;61
30343;BME280;17145;49.902;8.680;'2023-02-02 05:40:56';100620;;;5;60
30343;BME280;17145;49.902;8.680;'2023-02-02 05:43:23';100620;;;5;59
30343;BME280;17145;49.902;8.680;'2023-02-02 05:45:54';100630;;;5;60
30343;BME280;17145;49.902;8.680;'2023-02-02 05:48:22';100620;;;5;60
30343;BME280;17145;49.902;8.680;'2023-02-02 05:50:49';100620;;;5;61
30343;BME280;17145;49.902;8.680;'2023-02-02 05:53:16';100620;;;5;60
30343;BME280;17145;49.902;8.680;'2023-02-02 05:55:44';100630;;;6;59
30343;BME280;17145;49.902;8.680;'2023-02-02 05:58:11';100630;;;5;60
30343;BME280;17145;49.902;8.680;'2023-02-02 06:00:39';100630;;;4;62
30343;BME280;17145;49.902;8.680;'2023-02-02 06:03:06';100640;;;5;61
30343;BME280;17145;49.902;8.680;'2023-02-02 06:05:34';100630;;;5;60
30343;BME280;17145;49.902;8.680;'2023-02-02 06:08:01';100640;;;5;59
30343;BME280;17145;49.902;8.680;'2023-02-02 06:10:29';100630;;;5;60
30343;BME280;17145;49.902;8.680;'2023-02-02 06:12:56';100640;;;5;59
30343;BME280;17145;49.902;8.680;'2023-02-02 06:15:23';100630;;;4;60
30343;BME280;17145;49.902;8.680;'2023-02-02 06:17:51';100640;;;5;59
30343;BME280;17145;49.902;8.680;'2023-02-02 06:20:18';100640;;;5;59
30343;BME280;17145;49.902;8.680;'2023-02-02 06:22:48';100640;;;5;59
30343;BME280;17145;49.902;8.680;'2023-02-02 06:25:16';100640;;;5;59
30343;BME280;17145;49.902;8.680;'2023-02-02 06:27:44';100650;;;6;58
30343;BME280;17145;49.902;8.680;'2023-02-02 06:30:13';100640;;;5;58
30343;BME280;17145;49.902;8.680;'2023-02-02 06:32:40';100650;;;5;58
30343;BME280;17145;49.902;8.680;'2023-02-02 06:35:09';100650;;;5;59
30343;BME280;17145;49.902;8.680;'2023-02-02 06:37:37';100650;;;5;59
30343;BME280;17145;49.902;8.680;'2023-02-02 06:40:05';100650;;;5;58
30343;BME280;17145;49.902;8.680;'2023-02-02 06:42:33';100660;;;5;59
30343;BME280;17145;49.902;8.680;'2023-02-02 06:45:01';100660;;;5;59
30343;BME280;17145;49.902;8.680;'2023-02-02 06:47:28';100650;;;5;60
30343;BME280;17145;49.902;8.680;'2023-02-02 06:49:55';100650;;;5;60
30343;BME280;17145;49.902;8.680;'2023-02-02 06:52:25';100650;;;5;59
30343;BME280;17145;49.902;8.680;'2023-02-02 06:54:52';100660;;;6;58
30343;BME280;17145;49.902;8.680;'2023-02-02 06:57:19';100660;;;5;58
30343;BME280;17145;49.902;8.680;'2023-02-02 06:59:47';100660;;;5;59
30343;BME280;17145;49.902;8.680;'2023-02-02 07:02:14';100660;;;5;59
30343;BME280;17145;49.902;8.680;'2023-02-02 07:04:41';100650;;;5;60
30343;BME280;17145;49.902;8.680;'2023-02-02 07:07:09';100660;;;5;59
30343;BME280;17145;49.902;8.680;'2023-02-02 07:09:36';100660;;;6;59
30343;BME280;17145;49.902;8.680;'2023-02-02 07:12:04';100660;;;5;58
30343;BME280;17145;49.902;8.680;'2023-02-02 07:14:32';100660;;;5;59
30343;BME280;17145;49.902;8.680;'2023-02-02 07:16:59';100660;;;5;60
30343;BME280;17145;49.902;8.680;'2023-02-02 07:19:26';100670;;;4;61
30343;BME280;17145;49.902;8.680;'2023-02-02 07:21:54';100660;;;5;61
30343;BME280;17145;49.902;8.680;'2023-02-02 07:24:21';100670;;;4;62
30343;BME280;17145;49.902;8.680;'2023-02-02 07:26:49';100670;;;4;62
30343;BME280;17145;49.902;8.680;'2023-02-02 07:29:17';100680;;;5;61
30343;BME280;17145;49.902;8.680;'2023-02-02 07:31:44';100670;;;5;61
30343;BME280;17145;49.902;8.680;'2023-02-02 07:34:13';100680;;;4;63
30343;BME280;17145;49.902;8.680;'2023-02-02 07:36:41';100670;;;5;61
30343;BME280;17145;49.902;8.680;'2023-02-02 07:39:08';100670;;;5;60
30343;BME280;17145;49.902;8.680;'2023-02-02 07:41:36';100680;;;5;60
30343;BME280;17145;49.902;8.680;'2023-02-02 07:44:03';100680;;;5;59
30343;BME280;17145;49.902;8.680;'2023-02-02 07:46:31';100670;;;5;60
30343;BME280;17145;49.902;8.680;'2023-02-02 07:48:58';100660;;;5;60
30343;BME280;17145;49.902;8.680;'2023-02-02 07:51:26';100670;;;5;58
30343;BME280;17145;49.902;8.680;'2023-02-02 07:53:53';100680;;;5;58
30343;BME280;17145;49.902;8.680;'2023-02-02 07:56:20';100680;;;5;58
30343;BME280;17145;49.902;8.680;'2023-02-02 07:58:48';100680;;;5;59
30343;BME280;17145;49.902;8.680;'2023-02-02 08:01:15';100680;;;5;60
30343;BME280;17145;49.902;8.680;'2023-02-02 08:03:47';100670;;;5;60
30343;BME280;17145;49.902;8.680;'2023-02-02 08:06:16';100680;;;5;59
30343;BME280;17145;49.902;8.680;'2023-02-02 08:08:43';100680;;;5;59
30343;BME280;17145;49.902;8.680;'2023-02-02 08:11:11';100670;;;5;60
30343;BME280;17145;49.902;8.680;'2023-02-02 08:13:40';100680;;;5;60
30343;BME280;17145;49.902;8.680;'2023-02-02 08:16:08';100670;;;5;60
30343;BME280;17145;49.902;8.680;'2023-02-02 08:18:35';100660;;;5;60
30343;BME280;17145;49.902;8.680;'2023-02-02 08:21:03';100670;;;5;60
30343;BME280;17145;49.902;8.680;'2023-02-02 08:23:32';100670;;;5;59
30343;BME280;17145;49.902;8.680;'2023-02-02 08:26:01';100680;;;6;58
30343;BME280;17145;49.902;8.680;'2023-02-02 08:28:29';100680;;;6;58
30343;BME280;17145;49.902;8.680;'2023-02-02 08:30:56';100690;;;5;58
30343;BME280;17145;49.902;8.680;'2023-02-02 08:33:24';100690;;;5;58
30343;BME280;17145;49.902;8.680;'2023-02-02 08:35:51';100690;;;6;57
30343;BME280;17145;49.902;8.680;'2023-02-02 08:38:19';100690;;;5;58
30343;BME280;17145;49.902;8.680;'2023-02-02 08:40:46';100710;;;5;58
30343;BME280;17145;49.902;8.680;'2023-02-02 08:43:14';100710;;;5;58
30343;BME280;17145;49.902;8.680;'2023-02-02 08:45:41';100700;;;5;58
30343;BME280;17145;49.902;8.680;'2023-02-02 08:48:08';100710;;;5;57
30343;BME280;17145;49.902;8.680;'2023-02-02 08:50:36';100700;;;5;58
30343;BME280;17145;49.902;8.680;'2023-02-02 08:53:03';100720;;;5;58
30343;BME280;17145;49.902;8.680;'2023-02-02 08:55:31';100720;;;5;57
30343;BME280;17145;49.902;8.680;'2023-02-02 08:57:58';100720;;;6;57
30343;BME280;17145;49.902;8.680;'2023-02-02 09:00:26';100720;;;6;56
30343;BME280;17145;49.902;8.680;'2023-02-02 09:02:54';100720;;;5;58
30343;BME280;17145;49.902;8.680;'2023-02-02 09:05:21';100720;;;5;59
30343;BME280;17145;49.902;8.680;'2023-02-02 09:07:48';100730;;;5;58
30343;BME280;17145;49.902;8.680;'2023-02-02 09:10:16';100720;;;5;57
30343;BME280;17145;49.902;8.680;'2023-02-02 09:12:43';100720;;;5;57
30343;BME280;17145;49.902;8.680;'2023-02-02 09:15:11';100720;;;5;57
30343;BME280;17145;49.902;8.680;'2023-02-02 09:17:38';100730;;;5;57
30343;BME280;17145;49.902;8.680;'2023-02-02 09:20:07';100720;;;5;57
30343;BME280;17145;49.902;8.680;'2023-02-02 09:22:34';100740;;;5;58
30343;BME280;17145;49.902;8.680;'2023-02-02 09:25:02';100730;;;5;57
30343;BME280;17145;49.902;8.680;'2023-02-02 09:27:29';100730;;;5;58
30343;BME280;17145;49.902;8.680;'2023-02-02 09:29:56';100730;;;5;58
30343;BME280;17145;49.902;8.680;'2023-02-02 09:32:23';100750;;;5;59
30343;BME280;17145;49.902;8.680;'2023-02-02 09:34:51';100740;;;6;57
30343;BME280;17145;49.902;8.680;'2023-02-02 09:37:18';100750;;;5;57
30343;BME280;17145;49.902;8.680;'2023-02-02 09:39:46';100740;;;6;57
30343;BME280;17145;49.902;8.680;'2023-02-02 09:42:13';100760;;;6;56
30343;BME280;17145;49.902;8.680;'2023-02-02 09:44:41';100760;;;6;56
30343;BME280;17145;49.902;8.680;'2023-02-02 09:47:08';100760;;;6;55
30343;BME280;17145;49.902;8.680;'2023-02-02 09:49:36';100760;;;6;55
30343;BME280;17145;49.902;8.680;'2023-02-02 09:52:03';100760;;;6;54
30343;BME280;17145;49.902;8.680;'2023-02-02 09:54:31';100760;;;6;55
30343;BME280;17145;49.902;8.680;'2023-02-02 09:56:58';100760;;;6;54
30343;BME280;17145;49.902;8.680;'2023-02-02 09:59:25';100760;;;6;54
30343;BME280;17145;49.902;8.680;'2023-02-02 10:01:53';100760;;;6;54
30343;BME280;17145;49.902;8.680;'2023-02-02 10:04:20';100770;;;6;54
30343;BME280;17145;49.902;8.680;'2023-02-02 10:06:47';100770;;;6;54
30343;BME280;17145;49.902;8.680;'2023-02-02 10:09:15';100770;;;5;55
30343;BME280;17145;49.902;8.680;'2023-02-02 10:11:43';100760;;;6;55
30343;BME280;17145;49.902;8.680;'2023-02-02 10:14:12';100770;;;6;54
30343;BME280;17145;49.902;8.680;'2023-02-02 10:16:40';100760;;;5;55
30343;BME280;17145;49.902;8.680;'2023-02-02 10:19:10';100760;;;5;55
30343;BME280;17145;49.902;8.680;'2023-02-02 10:21:37';100770;;;6;54
30343;BME280;17145;49.902;8.680;'2023-02-02 10:24:08';100770;;;6;55
30343;BME280;17145;49.902;8.680;'2023-02-02 10:26:35';100770;;;6;55
30343;BME280;17145;49.902;8.680;'2023-02-02 10:29:05';100770;;;6;55
30343;BME280;17145;49.902;8.680;'2023-02-02 10:31:35';100760;;;7;54
30343;BME280;17145;49.902;8.680;'2023-02-02 10:34:03';100770;;;6;54
30343;BME280;17145;49.902;8.680;'2023-02-02 10:36:32';100770;;;6;54
30343;BME280;17145;49.902;8.680;'2023-02-02 10:39:00';100780;;;6;54
30343;BME280;17145;49.902;8.680;'2023-02-02 10:41:55';100760;;;6;54
30343;BME280;17145;49.902;8.680;'2023-02-02 10:44:37';100780;;;6;53
30343;BME280;17145;49.902;8.680;'2023-02-02 10:47:15';100770;;;7;53
30343;BME280;17145;49.902;8.680;'2023-02-02 10:49:55';100780;;;6;52
30343;BME280;17145;49.902;8.680;'2023-02-02 10:52:27';100780;;;7;52
30343;BME280;17145;49.902;8.680;'2023-02-02 10:55:01';100790;;;7;52
30343;BME280;17145;49.902;8.680;'2023-02-02 10:57:36';100800;;;6;53
30343;BME280;17145;49.902;8.680;'2023-02-02 11:00:10';100800;;;7;53
30343;BME280;17145;49.902;8.680;'2023-02-02 11:02:42';100810;;;6;53
30343;BME280;17145;49.902;8.680;'2023-02-02 11:05:15';100810;;;6;52
30343;BME280;17145;49.902;8.680;'2023-02-02 11:07:48';100810;;;7;52
30343;BME280;17145;49.902;8.680;'2023-02-02 11:10:20';100810;;;6;52
30343;BME280;17145;49.902;8.680;'2023-02-02 11:12:55';100810;;;6;52
30343;BME280;17145;49.902;8.680;'2023-02-02 11:15:33';100820;;;6;52
30343;BME280;17145;49.902;8.680;'2023-02-02 11:18:08';100820;;;6;52
30343;BME280;17145;49.902;8.680;'2023-02-02 11:20:43';100830;;;6;52
30343;BME280;17145;49.902;8.680;'2023-02-02 11:23:20';100820;;;7;52
30343;BME280;17145;49.902;8.680;'2023-02-02 11:25:56';100830;;;7;51
30343;BME280;17145;49.902;8.680;'2023-02-02 11:28:40';100830;;;6;52
30343;BME280;17145;49.902;8.680;'2023-02-02 11:31:17';100830;;;6;52
30343;BME280;17145;49.902;8.680;'2023-02-02 11:33:54';100820;;;6;52
30343;BME280;17145;49.902;8.680;'2023-02-02 11:36:31';100830;;;6;52
30343;BME280;17145;49.902;8.680;'2023-02-02 11:39:05';100840;;;6;53
30343;BME280;17145;49.902;8.680;'2023-02-02 11:41:40';100830;;;6;53
30343;BME280;17145;49.902;8.680;'2023-02-02 11:44:20';100830;;;6;52
30343;BME280;17145;49.902;8.680;'2023-02-02 11:46:52';100850;;;6;52
30343;BME280;17145;49.902;8.680;'2023-02-02 11:49:27';100840;;;6;53
30343;BME280;17145;49.902;8.680;'2023-02-02 11:52:01';100840;;;6;53
30343;BME280;17145;49.902;8.680;'2023-02-02 11:54:43';100820;;;6;53
30343;BME280;17145;49.902;8.680;'2023-02-02 11:57:15';100830;;;6;53
30343;BME280;17145;49.902;8.680;'2023-02-02 11:59:50';100830;;;5;54
30343;BME280;17145;49.902;8.680;'2023-02-02 12:02:17';100830;;;6;54
30343;BME280;17145;49.902;8.680;'2023-02-02 12:04:45';100840;;;6;53
30343;BME280;17145;49.902;8.680;'2023-02-02 12:07:12';100830;;;7;52
30343;BME280;17145;49.902;8.680;'2023-02-02 12:09:41';100830;;;6;52
30343;BME280;17145;49.902;8.680;'2023-02-02 12:12:19';100840;;;6;53
30343;BME280;17145;49.902;8.680;'2023-02-02 12:14:51';100830;;;7;52
30343;BME280;17145;49.902;8.680;'2023-02-02 12:17:21';100830;;;7;52
30343;BME280;17145;49.902;8.680;'2023-02-02 12:19:49';100840;;;7;52
30343;BME280;17145;49.902;8.680;'2023-02-02 12:22:27';100840;;;6;53
30343;BME280;17145;49.902;8.680;'2023-02-02 12:24:59';100840;;;7;52
30343;BME280;17145;49.902;8.680;'2023-02-02 12:27:30';100830;;;7;52
30343;BME280;17145;49.902;8.680;'2023-02-02 12:30:03';100830;;;7;51
30343;BME280;17145;49.902;8.680;'2023-02-02 12:32:32';100830;;;7;52
30343;BME280;17145;49.902;8.680;'2023-02-02 12:35:15';100830;;;6;53
30343;BME280;17145;49.902;8.680;'2023-02-02 12:37:55';100820;;;7;52
30343;BME280;17145;49.902;8.680;'2023-02-02 12:40:33';100830;;;6;52
30343;BME280;17145;49.902;8.680;'2023-02-02 12:43:03';100830;;;7;52
30343;BME280;17145;49.902;8.680;'2023-02-02 12:45:34';100820;;;7;51
30343;BME280;17145;49.902;8.680;'2023-02-02 12:48:06';100830;;;6;52
30343;BME280;17145;49.902;8.680;'2023-02-02 12:50:34';100820;;;7;51
30343;BME280;17145;49.902;8.680;'2023-02-02 12:53:02';100830;;;7;51
30343;BME280;17145;49.902;8.680;'2023-02-02 12:55:31';100820;;;7;51
30343;BME280;17145;49.902;8.680;'2023-02-02 12:58:09';100830;;;6;53
30343;BME280;17145;49.902;8.680;'2023-02-02 13:00:45';100830;;;6;53
30343;BME280;17145;49.902;8.680;'2023-02-02 13:03:22';100840;;;6;53
30343;BME280;17145;49.902;8.680;'2023-02-02 13:05:50';100820;;;7;53
30343;BME280;17145;49.902;8.680;'2023-02-02 13:08:18';100830;;;7;53
30343;BME280;17145;49.902;8.680;'2023-02-02 13:10:53';100820;;;6;53
30343;BME280;17145;49.902;8.680;'2023-02-02 13:13:34';100820;;;7;52
30343;BME280;17145;49.902;8.680;'2023-02-02 13:16:17';100820;;;7;52
30343;BME280;17145;49.902;8.680;'2023-02-02 13:18:58';100820;;;7;52
30343;BME280;17145;49.902;8.680;'2023-02-02 13:21:37';100830;;;7;52
30343;BME280;17145;49.902;8.680;'2023-02-02 13:24:18';100830;;;7;53
30343;BME280;17145;49.902;8.680;'2023-02-02 13:26:54';100820;;;6;53
30343;BME280;17145;49.902;8.680;'2023-02-02 13:29:41';100830;;;7;53
30343;BME280;17145;49.902;8.680;'2023-02-02 13:32:25';100820;;;7;53
30343;BME280;17145;49.902;8.680;'2023-02-02 13:35:06';100820;;;7;52
30343;BME280;17145;49.902;8.680;'2023-02-02 13:37:47';100820;;;7;53
30343;BME280;17145;49.902;8.680;'2023-02-02 13:40:28';100820;;;7;53
30343;BME280;17145;49.902;8.680;'2023-02-02 13:43:09';100810;;;6;53
30343;BME280;17145;49.902;8.680;'2023-02-02 13:45:50';100810;;;7;53
30343;BME280;17145;49.902;8.680;'2023-02-02 13:48:32';100810;;;7;53
30343;BME280;17145;49.902;8.680;'2023-02-02 13:51:14';100810;;;6;53
30343;BME280;17145;49.902;8.680;'2023-02-02 13:54:00';100810;;;7;53
30343;BME280;17145;49.902;8.680;'2023-02-02 13:56:36';100800;;;7;53
30343;BME280;17145;49.902;8.680;'2023-02-02 13:59:14';100800;;;7;53
30343;BME280;17145;49.902;8.680;'2023-02-02 14:01:55';100790;;;7;53
30343;BME280;17145;49.902;8.680;'2023-02-02 14:04:39';100810;;;7;53
30343;BME280;17145;49.902;8.680;'2023-02-02 14:07:21';100810;;;7;52
30343;BME280;17145;49.902;8.680;'2023-02-02 14:09:56';100810;;;7;52
30343;BME280;17145;49.902;8.680;'2023-02-02 14:12:25';100810;;;7;53
30343;BME280;17145;49.902;8.680;'2023-02-02 14:14:58';100810;;;7;53
30343;BME280;17145;49.902;8.680;'2023-02-02 14:17:32';100810;;;7;52
30343;BME280;17145;49.902;8.680;'2023-02-02 14:20:03';100810;;;7;53
30343;BME280;17145;49.902;8.680;'2023-02-02 14:22:36';100820;;;7;52
30343;BME280;17145;49.902;8.680;'2023-02-02 14:25:11';100840;;;7;53
30343;BME280;17145;49.902;8.680;'2023-02-02 14:27:40';100830;;;7;53
30343;BME280;17145;49.902;8.680;'2023-02-02 14:30:17';100840;;;7;54
30343;BME280;17145;49.902;8.680;'2023-02-02 14:32:47';100830;;;7;53
30343;BME280;17145;49.902;8.680;'2023-02-02 14:35:20';100830;;;7;53
30343;BME280;17145;49.902;8.680;'2023-02-02 14:37:53';100840;;;7;53
30343;BME280;17145;49.902;8.680;'2023-02-02 14:40:27';100840;;;7;53
30343;BME280;17145;49.902;8.680;'2023-02-02 14:43:01';100840;;;7;54
30343;BME280;17145;49.902;8.680;'2023-02-02 14:45:40';100840;;;7;54
30343;BME280;17145;49.902;8.680;'2023-02-02 14:48:16';100840;;;6;54
30343;BME280;17145;49.902;8.680;'2023-02-02 14:50:57';100840;;;7;54
30343;BME280;17145;49.902;8.680;'2023-02-02 14:56:21';100840;;;7;54
30343;BME280;17145;49.902;8.680;'2023-02-02 14:59:05';100850;;;7;54
30343;BME280;17145;49.902;8.680;'2023-02-02 15:01:32';100850;;;7;54
30343;BME280;17145;49.902;8.680;'2023-02-02 15:04:00';100850;;;7;54
30343;BME280;17145;49.902;8.680;'2023-02-02 15:06:33';100850;;;7;54
30343;BME280;17145;49.902;8.680;'2023-02-02 15:09:04';100860;;;7;54
30343;BME280;17145;49.902;8.680;'2023-02-02 15:11:33';100860;;;7;53
30343;BME280;17145;49.902;8.680;'2023-02-02 15:14:12';100860;;;7;53
30343;BME280;17145;49.902;8.680;'2023-02-02 15:16:45';100870;;;7;53
30343;BME280;17145;49.902;8.680;'2023-02-02 15:19:16';100870;;;7;53
30343;BME280;17145;49.902;8.680;'2023-02-02 15:22:00';100880;;;7;54
30343;BME280;17145;49.902;8.680;'2023-02-02 15:27:25';100870;;;7;52
30343;BME280;17145;49.902;8.680;'2023-02-02 15:29:59';100870;;;7;54
30343;BME280;17145;49.902;8.680;'2023-02-02 15:32:31';100870;;;8;52
30343;BME280;17145;49.902;8.680;'2023-02-02 15:35:04';100870;;;7;52
30343;BME280;17145;49.902;8.680;'2023-02-02 15:37:46';100870;;;8;52
30343;BME280;17145;49.902;8.680;'2023-02-02 15:40:28';100870;;;7;53
30343;BME280;17145;49.902;8.680;'2023-02-02 15:43:08';100880;;;8;52
30343;BME280;17145;49.902;8.680;'2023-02-02 15:45:37';100880;;;7;52
30343;BME280;17145;49.902;8.680;'2023-02-02 15:48:10';100880;;;8;52
30343;BME280;17145;49.902;8.680;'2023-02-02 15:50:46';100880;;;8;52